Date,TemperatureHighF,TemperatureAvgF,TemperatureLowF,DewpointHighF,DewpointAvgF,DewpointLowF,HumidityHigh,HumidityAvg,HumidityLow,PressureMaxIn,PressureMinIn,WindSpeedMaxMPH,WindSpeedAvgMPH,GustSpeedMaxMPH,PrecipitationSumIn
2013-7-1,78.5,68.4,64.0,71.8,65.5,63.0,98,91,62,29.92,29.75,8,0,8,1.49
2013-7-2,85.5,71.3,63.5,70.3,65.8,61.7,98,84,49,30.08,29.91,10,0,10,0.14
2013-7-3,73.0,67.0,61.7,70.8,65.2,61.1,98,94,86,30.20,30.05,11,0,11,2.11
2013-7-4,77.0,66.5,61.8,71.8,65.3,61.2,99,96,77,30.20,30.13,9,0,9,1.28
2013-7-5,83.5,71.3,66.7,70.1,66.4,64.8,96,86,58,30.20,30.12,13,0,13,0.04
2013-7-6,80.4,70.9,65.3,70.8,67.5,64.4,98,90,68,30.17,30.05,8,0,8,1.58
2013-7-7,79.2,70.7,67.9,72.4,68.6,66.7,98,93,73,30.13,30.05,6,0,6,0.75
2013-7-8,87.0,73.7,66.6,69.3,66.9,63.0,99,82,48,30.17,30.07,5,0,5,0.04
2013-7-9,90.8,73.7,65.5,71.5,66.9,63.9,98,82,42,30.13,30.00,8,0,8,0.62
2013-7-10,89.0,71.5,65.9,74.0,68.4,65.3,99,91,56,30.09,29.92,11,0,11,1.16
2013-7-11,79.2,71.0,66.0,71.4,68.0,65.4,99,91,72,29.95,29.85,4,0,4,0.03
2013-7-12,82.8,71.8,64.6,69.0,65.7,62.4,99,83,55,29.97,29.85,8,0,8,0.18
2013-7-13,78.3,68.7,60.9,68.1,64.3,60.1,98,86,69,30.08,29.95,7,0,7,0.06
2013-7-14,74.0,68.9,66.1,71.7,67.4,64.9,98,95,90,30.25,30.07,7,0,7,1.18
2013-7-15,84.7,72.9,65.2,70.5,66.7,63.9,98,83,55,30.31,30.22,6,0,6,0.01
2013-7-16,89.0,71.3,62.1,72.9,67.3,61.1,98,89,53,30.31,30.21,6,0,6,0.58
2013-7-17,86.7,71.1,65.1,74.1,69.0,64.7,99,94,60,30.28,30.14,4,0,4,0.30
2013-7-18,88.0,73.2,66.6,75.7,69.8,65.9,99,90,61,30.20,30.04,6,0,6,0.02
2013-7-19,69.6,67.8,66.7,68.7,67.3,66.1,99,98,97,30.10,30.05,0,0,0,0.00
2013-7-20,83.7,72.8,66.7,72.3,69.0,66.1,98,89,65,30.01,29.90,9,0,9,0.00
2013-7-21,85.0,71.0,65.9,72.6,67.9,64.8,98,91,58,29.99,29.91,7,0,7,0.06
2013-7-22,88.6,72.9,64.8,72.2,67.0,63.9,98,84,47,29.97,29.78,9,0,9,0.26
2013-7-23,85.0,72.3,64.5,70.3,66.9,63.9,98,85,55,29.88,29.76,5,0,5,0.07
2013-7-24,85.5,72.1,65.0,70.4,66.4,61.9,99,84,52,29.84,29.76,7,0,7,0.00
2013-7-25,86.6,71.6,63.8,67.1,63.7,57.4,98,79,41,30.01,29.83,7,0,7,0.00
2013-7-26,84.2,69.8,59.0,68.4,63.9,58.0,98,83,54,30.06,29.96,7,0,7,0.00
2013-7-27,81.2,70.9,65.6,70.6,66.4,63.8,98,86,58,30.00,29.84,7,0,7,0.69
2013-7-28,81.7,70.8,63.2,68.4,65.0,61.0,97,83,58,30.01,29.88,6,0,6,0.00
2013-7-29,82.5,67.2,56.8,63.1,58.3,51.2,98,77,36,30.19,30.01,6,0,6,0.00
2013-7-30,81.3,66.9,56.0,67.9,60.4,54.9,98,81,47,30.23,30.13,6,0,7,0.00
2013-7-31,75.2,68.4,63.3,69.7,66.2,61.9,98,93,79,30.17,29.93,5,0,5,0.21